sensor_id;sensor_type;location;lat;lon;timestamp;temperature;humidity
63313;DHT22;49442;45.640;13.812;2023-03-23T00:02:27;12.00;96.50
63313;DHT22;49442;45.640;13.812;2023-03-23T00:04:54;12.00;96.80
63313;DHT22;49442;45.640;13.812;2023-03-23T00:07:21;11.90;97.00
63313;DHT22;49442;45.640;13.812;2023-03-23T00:09:48;11.90;97.20
63313;DHT22;49442;45.640;13.812;2023-03-23T00:12:27;11.80;97.20
63313;DHT22;49442;45.640;13.812;2023-03-23T00:15:00;11.70;97.30
63313;DHT22;49442;45.640;13.812;2023-03-23T00:17:29;11.70;97.40
63313;DHT22;49442;45.640;13.812;2023-03-23T00:19:55;11.70;97.90
63313;DHT22;49442;45.640;13.812;2023-03-23T00:22:21;11.60;97.60
63313;DHT22;49442;45.640;13.812;2023-03-23T00:24:51;11.60;97.90
63313;DHT22;49442;45.640;13.812;2023-03-23T00:27:17;11.60;97.90
63313;DHT22;49442;45.640;13.812;2023-03-23T00:29:43;11.50;98.10
63313;DHT22;49442;45.640;13.812;2023-03-23T00:32:11;11.50;98.10
63313;DHT22;49442;45.640;13.812;2023-03-23T00:34:42;11.50;98.00
63313;DHT22;49442;45.640;13.812;2023-03-23T00:37:11;11.50;98.10
63313;DHT22;49442;45.640;13.812;2023-03-23T00:39:38;11.50;98.10
63313;DHT22;49442;45.640;13.812;2023-03-23T00:42:12;11.50;98.10
63313;DHT22;49442;45.640;13.812;2023-03-23T00:44:39;11.50;98.20
63313;DHT22;49442;45.640;13.812;2023-03-23T00:47:05;11.50;98.30
63313;DHT22;49442;45.640;13.812;2023-03-23T00:49:33;11.50;98.40
63313;DHT22;49442;45.640;13.812;2023-03-23T00:52:00;11.60;98.60
63313;DHT22;49442;45.640;13.812;2023-03-23T00:54:27;11.50;98.60
63313;DHT22;49442;45.640;13.812;2023-03-23T00:56:53;11.50;98.60
63313;DHT22;49442;45.640;13.812;2023-03-23T00:59:19;11.60;99.00
63313;DHT22;49442;45.640;13.812;2023-03-23T01:01:46;11.60;98.70
63313;DHT22;49442;45.640;13.812;2023-03-23T01:04:12;11.60;98.80
63313;DHT22;49442;45.640;13.812;2023-03-23T01:06:39;11.60;98.80
63313;DHT22;49442;45.640;13.812;2023-03-23T01:09:11;11.60;99.20
63313;DHT22;49442;45.640;13.812;2023-03-23T01:11:43;11.50;99.30
63313;DHT22;49442;45.640;13.812;2023-03-23T01:14:10;11.50;99.60
63313;DHT22;49442;45.640;13.812;2023-03-23T01:16:36;11.50;99.60
63313;DHT22;49442;45.640;13.812;2023-03-23T01:19:02;11.50;99.70
63313;DHT22;49442;45.640;13.812;2023-03-23T01:21:28;11.50;99.90
63313;DHT22;49442;45.640;13.812;2023-03-23T01:23:53;11.50;99.90
63313;DHT22;49442;45.640;13.812;2023-03-23T01:26:22;11.50;99.90
63313;DHT22;49442;45.640;13.812;2023-03-23T01:28:48;11.50;99.90
63313;DHT22;49442;45.640;13.812;2023-03-23T01:31:19;11.40;99.90
63313;DHT22;49442;45.640;13.812;2023-03-23T01:33:46;11.40;99.90
63313;DHT22;49442;45.640;13.812;2023-03-23T01:36:27;11.40;99.90
63313;DHT22;49442;45.640;13.812;2023-03-23T01:38:57;11.40;99.90
63313;DHT22;49442;45.640;13.812;2023-03-23T01:41:23;11.40;99.90
63313;DHT22;49442;45.640;13.812;2023-03-23T01:46:21;11.30;99.90
63313;DHT22;49442;45.640;13.812;2023-03-23T01:48:50;11.30;99.90
63313;DHT22;49442;45.640;13.812;2023-03-23T01:51:17;11.30;99.90
63313;DHT22;49442;45.640;13.812;2023-03-23T01:53:56;11.30;99.90
63313;DHT22;49442;45.640;13.812;2023-03-23T01:56:25;11.30;99.90
63313;DHT22;49442;45.640;13.812;2023-03-23T01:58:53;11.30;99.90
63313;DHT22;49442;45.640;13.812;2023-03-23T02:01:21;11.30;99.90
63313;DHT22;49442;45.640;13.812;2023-03-23T02:03:47;11.30;99.90
63313;DHT22;49442;45.640;13.812;2023-03-23T02:06:14;11.40;99.90
63313;DHT22;49442;45.640;13.812;2023-03-23T02:08:41;11.40;99.90
63313;DHT22;49442;45.640;13.812;2023-03-23T02:11:27;11.40;99.90
63313;DHT22;49442;45.640;13.812;2023-03-23T02:13:53;11.40;99.90
63313;DHT22;49442;45.640;13.812;2023-03-23T02:38:57;11.10;99.90
63313;DHT22;49442;45.640;13.812;2023-03-23T02:41:30;11.10;99.90
63313;DHT22;49442;45.640;13.812;2023-03-23T02:43:57;11.10;99.90
63313;DHT22;49442;45.640;13.812;2023-03-23T02:46:23;11.10;99.90
63313;DHT22;49442;45.640;13.812;2023-03-23T02:48:53;11.10;99.90
63313;DHT22;49442;45.640;13.812;2023-03-23T02:51:23;11.10;99.90
63313;DHT22;49442;45.640;13.812;2023-03-23T02:53:50;11.10;99.90
63313;DHT22;49442;45.640;13.812;2023-03-23T02:56:18;11.10;99.90
63313;DHT22;49442;45.640;13.812;2023-03-23T02:58:44;11.10;99.90
63313;DHT22;49442;45.640;13.812;2023-03-23T03:03:51;11.30;99.90
63313;DHT22;49442;45.640;13.812;2023-03-23T03:06:38;11.30;99.90
63313;DHT22;49442;45.640;13.812;2023-03-23T03:09:13;11.30;99.90
63313;DHT22;49442;45.640;13.812;2023-03-23T03:11:46;11.30;99.90
63313;DHT22;49442;45.640;13.812;2023-03-23T03:14:31;11.20;99.90
63313;DHT22;49442;45.640;13.812;2023-03-23T03:19:46;11.10;99.90
63313;DHT22;49442;45.640;13.812;2023-03-23T03:22:13;11.20;99.90
63313;DHT22;49442;45.640;13.812;2023-03-23T03:24:40;11.20;99.90
63313;DHT22;49442;45.640;13.812;2023-03-23T03:27:12;11.20;99.90
63313;DHT22;49442;45.640;13.812;2023-03-23T03:29:48;11.30;99.90
63313;DHT22;49442;45.640;13.812;2023-03-23T03:32:19;11.20;99.90
63313;DHT22;49442;45.640;13.812;2023-03-23T03:34:46;11.20;99.90
63313;DHT22;49442;45.640;13.812;2023-03-23T03:37:13;11.20;99.90
63313;DHT22;49442;45.640;13.812;2023-03-23T03:39:40;11.20;99.90
63313;DHT22;49442;45.640;13.812;2023-03-23T03:42:06;11.20;99.90
63313;DHT22;49442;45.640;13.812;2023-03-23T03:44:33;11.20;99.90
63313;DHT22;49442;45.640;13.812;2023-03-23T03:46:59;11.20;99.90
63313;DHT22;49442;45.640;13.812;2023-03-23T03:49:25;11.10;99.90
63313;DHT22;49442;45.640;13.812;2023-03-23T03:51:52;11.10;99.90
63313;DHT22;49442;45.640;13.812;2023-03-23T03:54:17;11.00;99.90
63313;DHT22;49442;45.640;13.812;2023-03-23T03:56:43;11.00;99.90
63313;DHT22;49442;45.640;13.812;2023-03-23T03:59:11;11.00;99.90
63313;DHT22;49442;45.640;13.812;2023-03-23T04:01:38;10.90;99.90
63313;DHT22;49442;45.640;13.812;2023-03-23T04:04:05;10.90;99.90
63313;DHT22;49442;45.640;13.812;2023-03-23T04:06:33;10.90;99.90
63313;DHT22;49442;45.640;13.812;2023-03-23T04:09:02;10.90;99.90
63313;DHT22;49442;45.640;13.812;2023-03-23T04:11:31;10.80;99.90
63313;DHT22;49442;45.640;13.812;2023-03-23T04:13:56;10.80;99.90
63313;DHT22;49442;45.640;13.812;2023-03-23T04:16:22;10.80;99.90
63313;DHT22;49442;45.640;13.812;2023-03-23T04:18:48;10.80;99.90
63313;DHT22;49442;45.640;13.812;2023-03-23T04:21:14;10.80;99.90
63313;DHT22;49442;45.640;13.812;2023-03-23T04:23:41;10.80;99.90
63313;DHT22;49442;45.640;13.812;2023-03-23T04:26:07;10.80;99.90
63313;DHT22;49442;45.640;13.812;2023-03-23T04:28:33;10.80;99.90
63313;DHT22;49442;45.640;13.812;2023-03-23T04:30:59;10.80;99.90
63313;DHT22;49442;45.640;13.812;2023-03-23T04:33:27;10.80;99.90
63313;DHT22;49442;45.640;13.812;2023-03-23T04:35:58;10.80;99.90
63313;DHT22;49442;45.640;13.812;2023-03-23T04:38:27;10.80;99.90
63313;DHT22;49442;45.640;13.812;2023-03-23T04:40:53;10.80;99.90
63313;DHT22;49442;45.640;13.812;2023-03-23T04:43:23;10.80;99.90
63313;DHT22;49442;45.640;13.812;2023-03-23T04:45:53;10.70;99.90
63313;DHT22;49442;45.640;13.812;2023-03-23T04:48:29;10.70;99.90
63313;DHT22;49442;45.640;13.812;2023-03-23T04:50:55;10.80;99.90
63313;DHT22;49442;45.640;13.812;2023-03-23T04:53:21;10.80;99.90
63313;DHT22;49442;45.640;13.812;2023-03-23T04:55:47;10.80;99.90
63313;DHT22;49442;45.640;13.812;2023-03-23T04:58:15;10.80;99.90
63313;DHT22;49442;45.640;13.812;2023-03-23T05:00:41;10.80;99.90
63313;DHT22;49442;45.640;13.812;2023-03-23T05:03:09;10.80;99.90
63313;DHT22;49442;45.640;13.812;2023-03-23T05:05:35;10.70;99.90
63313;DHT22;49442;45.640;13.812;2023-03-23T05:08:01;10.70;99.90
63313;DHT22;49442;45.640;13.812;2023-03-23T05:10:27;10.60;99.90
63313;DHT22;49442;45.640;13.812;2023-03-23T05:12:53;10.70;99.90
63313;DHT22;49442;45.640;13.812;2023-03-23T05:15:19;10.70;99.90
63313;DHT22;49442;45.640;13.812;2023-03-23T05:17:45;10.70;99.90
63313;DHT22;49442;45.640;13.812;2023-03-23T05:20:16;10.70;99.90
63313;DHT22;49442;45.640;13.812;2023-03-23T05:22:46;10.70;99.90
63313;DHT22;49442;45.640;13.812;2023-03-23T05:25:15;10.80;99.90
63313;DHT22;49442;45.640;13.812;2023-03-23T05:27:45;10.80;99.90
63313;DHT22;49442;45.640;13.812;2023-03-23T05:30:14;10.80;99.90
63313;DHT22;49442;45.640;13.812;2023-03-23T05:32:43;10.80;99.90
63313;DHT22;49442;45.640;13.812;2023-03-23T05:35:11;10.80;99.90
63313;DHT22;49442;45.640;13.812;2023-03-23T05:37:38;10.80;99.90
63313;DHT22;49442;45.640;13.812;2023-03-23T05:40:05;10.90;99.90
63313;DHT22;49442;45.640;13.812;2023-03-23T05:42:33;10.90;99.90
63313;DHT22;49442;45.640;13.812;2023-03-23T05:45:00;10.90;99.90
63313;DHT22;49442;45.640;13.812;2023-03-23T05:47:26;11.00;99.90
63313;DHT22;49442;45.640;13.812;2023-03-23T05:49:52;11.10;99.90
63313;DHT22;49442;45.640;13.812;2023-03-23T05:52:19;11.10;99.90
63313;DHT22;49442;45.640;13.812;2023-03-23T05:54:46;11.20;99.90
63313;DHT22;49442;45.640;13.812;2023-03-23T05:57:11;11.20;99.90
63313;DHT22;49442;45.640;13.812;2023-03-23T05:59:38;11.30;99.90
63313;DHT22;49442;45.640;13.812;2023-03-23T06:02:04;11.30;99.90
63313;DHT22;49442;45.640;13.812;2023-03-23T06:04:30;11.40;99.90
63313;DHT22;49442;45.640;13.812;2023-03-23T06:07:01;11.40;99.90
63313;DHT22;49442;45.640;13.812;2023-03-23T06:09:28;11.40;99.90
63313;DHT22;49442;45.640;13.812;2023-03-23T06:11:54;11.50;99.90
63313;DHT22;49442;45.640;13.812;2023-03-23T06:14:19;11.50;99.90
63313;DHT22;49442;45.640;13.812;2023-03-23T06:16:46;11.60;99.90
63313;DHT22;49442;45.640;13.812;2023-03-23T06:19:12;11.60;99.90
63313;DHT22;49442;45.640;13.812;2023-03-23T06:21:38;11.70;99.90
63313;DHT22;49442;45.640;13.812;2023-03-23T06:24:04;11.80;99.90
63313;DHT22;49442;45.640;13.812;2023-03-23T06:26:38;11.90;99.90
63313;DHT22;49442;45.640;13.812;2023-03-23T06:29:05;12.00;99.90
63313;DHT22;49442;45.640;13.812;2023-03-23T06:31:44;12.10;99.90
63313;DHT22;49442;45.640;13.812;2023-03-23T06:34:11;12.20;99.90
63313;DHT22;49442;45.640;13.812;2023-03-23T06:36:37;12.20;99.90
63313;DHT22;49442;45.640;13.812;2023-03-23T06:39:04;12.30;99.90
63313;DHT22;49442;45.640;13.812;2023-03-23T06:41:33;12.40;99.90
63313;DHT22;49442;45.640;13.812;2023-03-23T06:43:59;12.60;99.90
63313;DHT22;49442;45.640;13.812;2023-03-23T06:46:26;12.70;99.90
63313;DHT22;49442;45.640;13.812;2023-03-23T06:48:52;12.90;99.90
63313;DHT22;49442;45.640;13.812;2023-03-23T06:51:18;13.00;99.90
63313;DHT22;49442;45.640;13.812;2023-03-23T06:53:44;13.20;99.90
63313;DHT22;49442;45.640;13.812;2023-03-23T06:56:10;13.40;99.90
63313;DHT22;49442;45.640;13.812;2023-03-23T06:58:37;13.60;99.90
63313;DHT22;49442;45.640;13.812;2023-03-23T07:01:03;13.80;99.90
63313;DHT22;49442;45.640;13.812;2023-03-23T07:03:29;14.00;99.40
63313;DHT22;49442;45.640;13.812;2023-03-23T07:05:56;14.20;99.50
63313;DHT22;49442;45.640;13.812;2023-03-23T07:08:22;14.40;99.10
63313;DHT22;49442;45.640;13.812;2023-03-23T07:10:51;14.60;98.70
63313;DHT22;49442;45.640;13.812;2023-03-23T07:13:18;14.80;97.60
63313;DHT22;49442;45.640;13.812;2023-03-23T07:15:43;15.00;98.00
63313;DHT22;49442;45.640;13.812;2023-03-23T07:18:09;15.20;97.20
63313;DHT22;49442;45.640;13.812;2023-03-23T07:20:35;15.30;98.50
63313;DHT22;49442;45.640;13.812;2023-03-23T07:23:01;15.40;98.90
63313;DHT22;49442;45.640;13.812;2023-03-23T07:25:27;15.40;98.30
63313;DHT22;49442;45.640;13.812;2023-03-23T07:27:53;15.40;98.30
63313;DHT22;49442;45.640;13.812;2023-03-23T07:30:19;15.40;98.40
63313;DHT22;49442;45.640;13.812;2023-03-23T07:32:45;15.40;97.80
63313;DHT22;49442;45.640;13.812;2023-03-23T07:35:11;15.50;98.10
63313;DHT22;49442;45.640;13.812;2023-03-23T07:37:36;15.40;98.20
63313;DHT22;49442;45.640;13.812;2023-03-23T07:40:03;15.40;98.30
63313;DHT22;49442;45.640;13.812;2023-03-23T07:42:44;15.50;99.00
63313;DHT22;49442;45.640;13.812;2023-03-23T07:45:12;15.60;98.70
63313;DHT22;49442;45.640;13.812;2023-03-23T07:47:39;15.80;98.70
63313;DHT22;49442;45.640;13.812;2023-03-23T07:50:05;16.00;98.60
63313;DHT22;49442;45.640;13.812;2023-03-23T07:52:37;15.90;97.90
63313;DHT22;49442;45.640;13.812;2023-03-23T07:55:03;16.10;98.30
63313;DHT22;49442;45.640;13.812;2023-03-23T07:57:30;16.30;98.60
63313;DHT22;49442;45.640;13.812;2023-03-23T07:59:56;16.50;97.10
63313;DHT22;49442;45.640;13.812;2023-03-23T08:02:23;16.60;97.40
63313;DHT22;49442;45.640;13.812;2023-03-23T08:04:49;16.80;96.40
63313;DHT22;49442;45.640;13.812;2023-03-23T08:07:16;16.80;95.80
63313;DHT22;49442;45.640;13.812;2023-03-23T08:09:43;16.90;95.70
63313;DHT22;49442;45.640;13.812;2023-03-23T08:12:09;17.00;95.20
63313;DHT22;49442;45.640;13.812;2023-03-23T08:14:35;17.20;96.00
63313;DHT22;49442;45.640;13.812;2023-03-23T08:17:01;17.30;94.80
63313;DHT22;49442;45.640;13.812;2023-03-23T08:19:27;17.50;94.70
63313;DHT22;49442;45.640;13.812;2023-03-23T08:21:52;17.70;95.00
63313;DHT22;49442;45.640;13.812;2023-03-23T08:24:19;17.70;93.40
63313;DHT22;49442;45.640;13.812;2023-03-23T08:26:45;17.70;93.80
63313;DHT22;49442;45.640;13.812;2023-03-23T08:29:10;17.80;92.90
63313;DHT22;49442;45.640;13.812;2023-03-23T08:31:38;17.80;93.30
63313;DHT22;49442;45.640;13.812;2023-03-23T08:34:05;17.80;93.40
63313;DHT22;49442;45.640;13.812;2023-03-23T08:36:32;17.80;93.50
63313;DHT22;49442;45.640;13.812;2023-03-23T08:38:58;17.80;93.90
63313;DHT22;49442;45.640;13.812;2023-03-23T08:41:24;17.90;94.10
63313;DHT22;49442;45.640;13.812;2023-03-23T08:43:50;18.20;93.20
63313;DHT22;49442;45.640;13.812;2023-03-23T08:46:18;19.80;92.60
63313;DHT22;49442;45.640;13.812;2023-03-23T08:48:46;20.90;90.60
63313;DHT22;49442;45.640;13.812;2023-03-23T08:51:12;22.30;86.80
63313;DHT22;49442;45.640;13.812;2023-03-23T08:53:38;22.30;83.90
63313;DHT22;49442;45.640;13.812;2023-03-23T08:56:08;22.20;82.00
63313;DHT22;49442;45.640;13.812;2023-03-23T08:58:35;21.90;78.40
63313;DHT22;49442;45.640;13.812;2023-03-23T09:01:02;21.40;80.70
63313;DHT22;49442;45.640;13.812;2023-03-23T09:03:28;21.10;81.80
63313;DHT22;49442;45.640;13.812;2023-03-23T09:05:57;20.90;81.60
63313;DHT22;49442;45.640;13.812;2023-03-23T09:08:27;20.70;81.70
63313;DHT22;49442;45.640;13.812;2023-03-23T09:10:55;20.40;83.40
63313;DHT22;49442;45.640;13.812;2023-03-23T09:13:23;20.10;83.30
63313;DHT22;49442;45.640;13.812;2023-03-23T09:15:49;19.80;82.50
63313;DHT22;49442;45.640;13.812;2023-03-23T09:18:14;19.70;83.80
63313;DHT22;49442;45.640;13.812;2023-03-23T09:20:40;19.60;84.00
63313;DHT22;49442;45.640;13.812;2023-03-23T09:23:07;19.40;83.40
63313;DHT22;49442;45.640;13.812;2023-03-23T09:25:33;19.40;83.60
63313;DHT22;49442;45.640;13.812;2023-03-23T09:27:59;19.50;84.90
63313;DHT22;49442;45.640;13.812;2023-03-23T09:30:30;19.60;84.20
63313;DHT22;49442;45.640;13.812;2023-03-23T09:32:57;19.80;84.40
63313;DHT22;49442;45.640;13.812;2023-03-23T09:35:23;20.10;83.30
63313;DHT22;49442;45.640;13.812;2023-03-23T09:37:50;20.30;82.50
63313;DHT22;49442;45.640;13.812;2023-03-23T09:40:26;20.50;80.70
63313;DHT22;49442;45.640;13.812;2023-03-23T09:43:07;20.50;80.40
63313;DHT22;49442;45.640;13.812;2023-03-23T09:46:07;20.50;79.90
63313;DHT22;49442;45.640;13.812;2023-03-23T09:48:50;20.60;79.60
63313;DHT22;49442;45.640;13.812;2023-03-23T09:54:22;20.80;77.10
63313;DHT22;49442;45.640;13.812;2023-03-23T09:56:50;20.50;76.90
63313;DHT22;49442;45.640;13.812;2023-03-23T09:59:44;20.40;80.30
63313;DHT22;49442;45.640;13.812;2023-03-23T10:02:17;20.40;78.10
63313;DHT22;49442;45.640;13.812;2023-03-23T10:04:48;20.20;78.90
63313;DHT22;49442;45.640;13.812;2023-03-23T10:07:15;19.90;80.50
63313;DHT22;49442;45.640;13.812;2023-03-23T10:09:43;19.50;81.50
63313;DHT22;49442;45.640;13.812;2023-03-23T10:12:30;19.20;82.50
63313;DHT22;49442;45.640;13.812;2023-03-23T10:15:23;18.90;83.80
63313;DHT22;49442;45.640;13.812;2023-03-23T10:23:20;18.80;87.60
63313;DHT22;49442;45.640;13.812;2023-03-23T10:25:57;18.70;87.40
63313;DHT22;49442;45.640;13.812;2023-03-23T10:28:46;18.70;87.20
63313;DHT22;49442;45.640;13.812;2023-03-23T10:31:17;18.60;88.80
63313;DHT22;49442;45.640;13.812;2023-03-23T10:33:49;18.70;89.80
63313;DHT22;49442;45.640;13.812;2023-03-23T10:36:37;18.70;90.00
63313;DHT22;49442;45.640;13.812;2023-03-23T10:39:21;18.80;88.60
63313;DHT22;49442;45.640;13.812;2023-03-23T10:41:48;18.70;90.00
63313;DHT22;49442;45.640;13.812;2023-03-23T10:49:56;18.80;89.10
63313;DHT22;49442;45.640;13.812;2023-03-23T10:52:26;18.70;89.10
63313;DHT22;49442;45.640;13.812;2023-03-23T10:55:04;18.70;89.80
63313;DHT22;49442;45.640;13.812;2023-03-23T10:57:32;18.80;89.10
63313;DHT22;49442;45.640;13.812;2023-03-23T11:00:16;18.90;88.00
63313;DHT22;49442;45.640;13.812;2023-03-23T11:03:06;19.00;88.20
63313;DHT22;49442;45.640;13.812;2023-03-23T11:08:00;19.20;86.90
63313;DHT22;49442;45.640;13.812;2023-03-23T11:10:39;19.20;85.60
63313;DHT22;49442;45.640;13.812;2023-03-23T11:13:15;19.10;85.50
63313;DHT22;49442;45.640;13.812;2023-03-23T11:15:42;19.10;86.40
63313;DHT22;49442;45.640;13.812;2023-03-23T11:18:18;19.10;83.80
63313;DHT22;49442;45.640;13.812;2023-03-23T11:20:46;19.30;84.70
63313;DHT22;49442;45.640;13.812;2023-03-23T11:23:32;19.30;81.70
63313;DHT22;49442;45.640;13.812;2023-03-23T11:26:14;19.20;81.50
63313;DHT22;49442;45.640;13.812;2023-03-23T11:31:13;19.00;85.30
63313;DHT22;49442;45.640;13.812;2023-03-23T11:36:17;19.30;81.60
63313;DHT22;49442;45.640;13.812;2023-03-23T11:38:44;19.10;81.70
63313;DHT22;49442;45.640;13.812;2023-03-23T11:41:18;19.00;81.90
63313;DHT22;49442;45.640;13.812;2023-03-23T11:43:46;18.90;82.50
63313;DHT22;49442;45.640;13.812;2023-03-23T11:46:33;18.70;82.00
63313;DHT22;49442;45.640;13.812;2023-03-23T11:49:03;18.60;84.10
63313;DHT22;49442;45.640;13.812;2023-03-23T11:51:45;18.50;85.00
63313;DHT22;49442;45.640;13.812;2023-03-23T11:54:19;18.50;84.20
63313;DHT22;49442;45.640;13.812;2023-03-23T11:56:47;18.40;86.90
63313;DHT22;49442;45.640;13.812;2023-03-23T11:59:26;18.50;86.70
63313;DHT22;49442;45.640;13.812;2023-03-23T12:05:03;18.50;86.20
63313;DHT22;49442;45.640;13.812;2023-03-23T12:08:01;18.40;86.10
63313;DHT22;49442;45.640;13.812;2023-03-23T12:16:33;18.10;87.80
63313;DHT22;49442;45.640;13.812;2023-03-23T12:19:28;18.40;86.40
63313;DHT22;49442;45.640;13.812;2023-03-23T12:48:27;18.80;82.90
63313;DHT22;49442;45.640;13.812;2023-03-23T12:56:28;18.60;83.70
63313;DHT22;49442;45.640;13.812;2023-03-23T13:04:41;19.00;84.70
63313;DHT22;49442;45.640;13.812;2023-03-23T13:07:16;19.30;83.10
63313;DHT22;49442;45.640;13.812;2023-03-23T13:09:55;19.40;79.80
63313;DHT22;49442;45.640;13.812;2023-03-23T13:12:25;19.50;80.60
63313;DHT22;49442;45.640;13.812;2023-03-23T13:15:04;19.30;78.80
63313;DHT22;49442;45.640;13.812;2023-03-23T13:20:43;19.70;76.90
63313;DHT22;49442;45.640;13.812;2023-03-23T13:23:42;19.70;76.10
63313;DHT22;49442;45.640;13.812;2023-03-23T13:26:12;19.50;77.70
63313;DHT22;49442;45.640;13.812;2023-03-23T13:31:16;19.60;78.40
63313;DHT22;49442;45.640;13.812;2023-03-23T13:33:53;19.90;79.40
63313;DHT22;49442;45.640;13.812;2023-03-23T13:36:35;20.10;79.10
63313;DHT22;49442;45.640;13.812;2023-03-23T13:39:04;20.20;78.10
63313;DHT22;49442;45.640;13.812;2023-03-23T13:41:33;19.50;77.30
63313;DHT22;49442;45.640;13.812;2023-03-23T13:44:17;19.50;79.30
63313;DHT22;49442;45.640;13.812;2023-03-23T13:46:54;19.50;79.50
63313;DHT22;49442;45.640;13.812;2023-03-23T13:49:22;19.60;80.10
63313;DHT22;49442;45.640;13.812;2023-03-23T13:54:23;19.60;79.60
63313;DHT22;49442;45.640;13.812;2023-03-23T13:56:59;19.30;79.40
63313;DHT22;49442;45.640;13.812;2023-03-23T14:01:55;19.20;81.80
63313;DHT22;49442;45.640;13.812;2023-03-23T14:04:23;19.40;81.90
63313;DHT22;49442;45.640;13.812;2023-03-23T14:06:57;19.60;80.60
63313;DHT22;49442;45.640;13.812;2023-03-23T14:09:27;19.60;79.60
63313;DHT22;49442;45.640;13.812;2023-03-23T14:12:01;19.70;79.00
63313;DHT22;49442;45.640;13.812;2023-03-23T14:14:40;20.00;80.70
63313;DHT22;49442;45.640;13.812;2023-03-23T14:17:28;20.20;78.10
63313;DHT22;49442;45.640;13.812;2023-03-23T14:19:56;20.20;78.50
63313;DHT22;49442;45.640;13.812;2023-03-23T14:22:27;20.30;77.90
63313;DHT22;49442;45.640;13.812;2023-03-23T14:25:21;20.40;76.40
63313;DHT22;49442;45.640;13.812;2023-03-23T14:27:51;20.50;77.30
63313;DHT22;49442;45.640;13.812;2023-03-23T14:30:22;20.40;76.80
63313;DHT22;49442;45.640;13.812;2023-03-23T14:32:53;20.20;77.60
63313;DHT22;49442;45.640;13.812;2023-03-23T14:35:31;20.10;78.00
63313;DHT22;49442;45.640;13.812;2023-03-23T14:37:57;20.00;76.30
63313;DHT22;49442;45.640;13.812;2023-03-23T14:40:26;19.80;78.20
63313;DHT22;49442;45.640;13.812;2023-03-23T14:42:53;19.90;78.20
63313;DHT22;49442;45.640;13.812;2023-03-23T14:45:21;19.90;78.60
63313;DHT22;49442;45.640;13.812;2023-03-23T14:47:52;19.90;78.40
63313;DHT22;49442;45.640;13.812;2023-03-23T14:50:25;19.90;77.60
63313;DHT22;49442;45.640;13.812;2023-03-23T14:52:51;19.70;77.70
63313;DHT22;49442;45.640;13.812;2023-03-23T14:55:22;19.70;79.70
63313;DHT22;49442;45.640;13.812;2023-03-23T14:57:49;19.80;79.00
63313;DHT22;49442;45.640;13.812;2023-03-23T15:00:26;19.80;79.10
63313;DHT22;49442;45.640;13.812;2023-03-23T15:02:56;19.80;78.40
63313;DHT22;49442;45.640;13.812;2023-03-23T15:05:36;19.60;76.40
63313;DHT22;49442;45.640;13.812;2023-03-23T15:08:07;19.40;77.30
63313;DHT22;49442;45.640;13.812;2023-03-23T15:10:35;19.20;79.60
63313;DHT22;49442;45.640;13.812;2023-03-23T15:13:01;18.90;77.80
63313;DHT22;49442;45.640;13.812;2023-03-23T15:15:35;18.80;78.80
63313;DHT22;49442;45.640;13.812;2023-03-23T15:18:02;19.10;80.10
63313;DHT22;49442;45.640;13.812;2023-03-23T15:20:48;19.10;78.30
63313;DHT22;49442;45.640;13.812;2023-03-23T15:23:30;19.20;78.80
63313;DHT22;49442;45.640;13.812;2023-03-23T15:25:57;19.40;78.40
63313;DHT22;49442;45.640;13.812;2023-03-23T15:28:31;19.70;76.90
63313;DHT22;49442;45.640;13.812;2023-03-23T15:31:03;19.70;78.10
63313;DHT22;49442;45.640;13.812;2023-03-23T15:33:37;19.60;78.30
63313;DHT22;49442;45.640;13.812;2023-03-23T15:36:15;19.50;78.00
63313;DHT22;49442;45.640;13.812;2023-03-23T15:38:44;19.30;78.70
63313;DHT22;49442;45.640;13.812;2023-03-23T15:41:25;19.30;78.30
63313;DHT22;49442;45.640;13.812;2023-03-23T15:43:55;19.20;78.00
63313;DHT22;49442;45.640;13.812;2023-03-23T15:46:25;18.90;77.70
63313;DHT22;49442;45.640;13.812;2023-03-23T15:51:26;19.00;79.60
63313;DHT22;49442;45.640;13.812;2023-03-23T15:53:53;19.00;79.70
63313;DHT22;49442;45.640;13.812;2023-03-23T15:56:20;19.00;80.40
63313;DHT22;49442;45.640;13.812;2023-03-23T15:58:45;19.00;79.80
63313;DHT22;49442;45.640;13.812;2023-03-23T16:01:17;19.00;79.50
63313;DHT22;49442;45.640;13.812;2023-03-23T16:06:32;19.00;80.60
63313;DHT22;49442;45.640;13.812;2023-03-23T16:08:58;19.00;80.40
63313;DHT22;49442;45.640;13.812;2023-03-23T16:11:26;18.90;79.80
63313;DHT22;49442;45.640;13.812;2023-03-23T16:13:53;18.90;80.90
63313;DHT22;49442;45.640;13.812;2023-03-23T16:16:33;18.70;81.70
63313;DHT22;49442;45.640;13.812;2023-03-23T16:18:59;18.70;80.40
63313;DHT22;49442;45.640;13.812;2023-03-23T16:21:25;18.80;80.50
63313;DHT22;49442;45.640;13.812;2023-03-23T16:23:54;18.70;80.80
63313;DHT22;49442;45.640;13.812;2023-03-23T16:26:20;18.60;80.80
63313;DHT22;49442;45.640;13.812;2023-03-23T16:28:46;18.50;81.20
63313;DHT22;49442;45.640;13.812;2023-03-23T16:31:12;18.50;82.40
63313;DHT22;49442;45.640;13.812;2023-03-23T16:33:37;18.40;82.90
63313;DHT22;49442;45.640;13.812;2023-03-23T16:36:04;18.30;82.10
63313;DHT22;49442;45.640;13.812;2023-03-23T16:38:29;18.20;82.80
63313;DHT22;49442;45.640;13.812;2023-03-23T16:40:55;18.20;83.60
63313;DHT22;49442;45.640;13.812;2023-03-23T16:43:21;18.10;84.00
63313;DHT22;49442;45.640;13.812;2023-03-23T16:45:47;18.00;83.40
63313;DHT22;49442;45.640;13.812;2023-03-23T16:48:14;17.90;85.60
63313;DHT22;49442;45.640;13.812;2023-03-23T16:50:43;17.80;86.20
63313;DHT22;49442;45.640;13.812;2023-03-23T16:53:09;17.80;85.00
63313;DHT22;49442;45.640;13.812;2023-03-23T16:55:36;17.80;84.00
63313;DHT22;49442;45.640;13.812;2023-03-23T16:58:03;17.70;84.60
63313;DHT22;49442;45.640;13.812;2023-03-23T17:00:28;17.60;86.00
63313;DHT22;49442;45.640;13.812;2023-03-23T17:02:55;17.50;86.10
63313;DHT22;49442;45.640;13.812;2023-03-23T17:05:26;17.40;87.00
63313;DHT22;49442;45.640;13.812;2023-03-23T17:07:53;17.30;90.30
63313;DHT22;49442;45.640;13.812;2023-03-23T17:10:21;17.10;88.90
63313;DHT22;49442;45.640;13.812;2023-03-23T17:12:47;16.90;91.20
63313;DHT22;49442;45.640;13.812;2023-03-23T17:15:13;16.80;91.40
63313;DHT22;49442;45.640;13.812;2023-03-23T17:17:39;16.70;90.90
63313;DHT22;49442;45.640;13.812;2023-03-23T17:20:05;16.50;90.50
63313;DHT22;49442;45.640;13.812;2023-03-23T17:22:32;16.30;91.40
63313;DHT22;49442;45.640;13.812;2023-03-23T17:24:58;16.20;92.20
63313;DHT22;49442;45.640;13.812;2023-03-23T17:27:24;16.10;92.30